sensor_id;sensor_type;location;lat;lon;timestamp;pressure;altitude;pressure_sealevel;temperature;humidity
66681;BME280;53575;51.366;12.350;2023-01-29T00:00:07;101574.47;;;-1.61;81.17
66681;BME280;53575;51.366;12.350;2023-01-29T00:02:37;101582.88;;;-1.63;82.34
66681;BME280;53575;51.366;12.350;2023-01-29T00:05:03;101586.81;;;-1.68;81.75
66681;BME280;53575;51.366;12.350;2023-01-29T00:07:29;101582.19;;;-1.74;82.17
66681;BME280;53575;51.366;12.350;2023-01-29T00:09:55;101582.09;;;-1.76;82.28
66681;BME280;53575;51.366;12.350;2023-01-29T00:12:20;101571.06;;;-1.75;82.26
66681;BME280;53575;51.366;12.350;2023-01-29T00:14:46;101563.06;;;-1.66;81.87
66681;BME280;53575;51.366;12.350;2023-01-29T00:17:11;101566.63;;;-1.77;82.16
66681;BME280;53575;51.366;12.350;2023-01-29T00:19:36;101558.75;;;-1.80;82.71
66681;BME280;53575;51.366;12.350;2023-01-29T00:22:02;101557.84;;;-1.81;83.21
66681;BME280;53575;51.366;12.350;2023-01-29T00:24:28;101554.94;;;-1.87;83.13
66681;BME280;53575;51.366;12.350;2023-01-29T00:26:54;101556.97;;;-1.81;83.28
66681;BME280;53575;51.366;12.350;2023-01-29T00:29:19;101559.34;;;-1.84;84.08
66681;BME280;53575;51.366;12.350;2023-01-29T00:31:46;101561.91;;;-1.84;83.49
66681;BME280;53575;51.366;12.350;2023-01-29T00:34:11;101557.16;;;-1.91;83.17
66681;BME280;53575;51.366;12.350;2023-01-29T00:36:37;101562.28;;;-1.91;84.08
66681;BME280;53575;51.366;12.350;2023-01-29T00:39:02;101556.88;;;-1.96;83.69
66681;BME280;53575;51.366;12.350;2023-01-29T00:41:35;101566.53;;;-1.92;84.45
66681;BME280;53575;51.366;12.350;2023-01-29T00:44:19;101558.56;;;-1.97;84.24
66681;BME280;53575;51.366;12.350;2023-01-29T00:47:04;101555.19;;;-1.96;84.10
66681;BME280;53575;51.366;12.350;2023-01-29T00:49:50;101550.59;;;-2.01;83.75
66681;BME280;53575;51.366;12.350;2023-01-29T00:52:16;101549.78;;;-2.00;83.46
66681;BME280;53575;51.366;12.350;2023-01-29T00:54:48;101553.25;;;-2.13;83.61
66681;BME280;53575;51.366;12.350;2023-01-29T00:57:13;101544.38;;;-2.31;85.13
66681;BME280;53575;51.366;12.350;2023-01-29T00:59:38;101532.53;;;-2.29;85.85
66681;BME280;53575;51.366;12.350;2023-01-29T01:02:04;101530.47;;;-2.22;85.52
66681;BME280;53575;51.366;12.350;2023-01-29T01:04:48;101534.44;;;-2.13;86.02
66681;BME280;53575;51.366;12.350;2023-01-29T01:07:13;101536.31;;;-2.24;85.56
66681;BME280;53575;51.366;12.350;2023-01-29T01:09:39;101539.84;;;-2.22;85.52
66681;BME280;53575;51.366;12.350;2023-01-29T01:12:23;101535.91;;;-2.17;85.99
66681;BME280;53575;51.366;12.350;2023-01-29T01:14:48;101537.69;;;-2.16;84.96
66681;BME280;53575;51.366;12.350;2023-01-29T01:17:14;101536.66;;;-2.45;87.07
66681;BME280;53575;51.366;12.350;2023-01-29T01:19:40;101533.41;;;-2.42;87.55
66681;BME280;53575;51.366;12.350;2023-01-29T01:22:05;101527.25;;;-2.32;86.89
66681;BME280;53575;51.366;12.350;2023-01-29T01:24:31;101539.03;;;-2.34;87.12
66681;BME280;53575;51.366;12.350;2023-01-29T01:26:56;101528.50;;;-2.26;87.11
66681;BME280;53575;51.366;12.350;2023-01-29T01:29:22;101522.13;;;-2.19;85.76
66681;BME280;53575;51.366;12.350;2023-01-29T01:31:48;101509.59;;;-2.14;84.94
66681;BME280;53575;51.366;12.350;2023-01-29T01:34:14;101507.13;;;-2.26;86.43
66681;BME280;53575;51.366;12.350;2023-01-29T01:36:39;101503.09;;;-2.23;86.12
66681;BME280;53575;51.366;12.350;2023-01-29T01:39:05;101505.28;;;-2.29;86.45
66681;BME280;53575;51.366;12.350;2023-01-29T01:41:30;101505.94;;;-2.18;87.23
66681;BME280;53575;51.366;12.350;2023-01-29T01:44:01;101502.03;;;-2.13;85.92
66681;BME280;53575;51.366;12.350;2023-01-29T01:46:31;101502.50;;;-2.18;87.86
66681;BME280;53575;51.366;12.350;2023-01-29T01:49:02;101497.03;;;-2.25;87.72
66681;BME280;53575;51.366;12.350;2023-01-29T01:51:31;101500.75;;;-2.19;85.54
66681;BME280;53575;51.366;12.350;2023-01-29T01:54:24;101508.13;;;-2.24;85.99
66681;BME280;53575;51.366;12.350;2023-01-29T01:56:55;101509.69;;;-2.26;85.94
66681;BME280;53575;51.366;12.350;2023-01-29T01:59:31;101511.28;;;-2.28;86.17
66681;BME280;53575;51.366;12.350;2023-01-29T02:01:58;101514.13;;;-2.37;86.28
66681;BME280;53575;51.366;12.350;2023-01-29T02:04:25;101509.13;;;-2.35;86.35
66681;BME280;53575;51.366;12.350;2023-01-29T02:07:13;101508.63;;;-2.30;86.14
66681;BME280;53575;51.366;12.350;2023-01-29T02:10:12;101512.34;;;-2.38;86.03
66681;BME280;53575;51.366;12.350;2023-01-29T02:12:40;101507.81;;;-2.42;86.88
66681;BME280;53575;51.366;12.350;2023-01-29T02:15:07;101513.84;;;-2.41;87.17
66681;BME280;53575;51.366;12.350;2023-01-29T02:17:34;101507.63;;;-2.45;86.85
66681;BME280;53575;51.366;12.350;2023-01-29T02:22:33;101510.31;;;-2.43;87.50
66681;BME280;53575;51.366;12.350;2023-01-29T02:33:54;101505.44;;;-2.52;87.85
66681;BME280;53575;51.366;12.350;2023-01-29T02:36:45;101493.44;;;-2.53;88.20
66681;BME280;53575;51.366;12.350;2023-01-29T02:39:22;101508.91;;;-2.52;87.96
66681;BME280;53575;51.366;12.350;2023-01-29T02:42:12;101523.69;;;-2.48;87.55
66681;BME280;53575;51.366;12.350;2023-01-29T02:44:46;101530.28;;;-2.51;87.81
66681;BME280;53575;51.366;12.350;2023-01-29T02:47:16;101518.16;;;-2.54;88.34
66681;BME280;53575;51.366;12.350;2023-01-29T02:49:56;101517.28;;;-2.54;88.34
66681;BME280;53575;51.366;12.350;2023-01-29T02:56:05;101522.59;;;-2.51;88.34
66681;BME280;53575;51.366;12.350;2023-01-29T02:58:32;101513.03;;;-2.54;88.60
66681;BME280;53575;51.366;12.350;2023-01-29T03:01:10;101515.31;;;-2.58;88.31
66681;BME280;53575;51.366;12.350;2023-01-29T03:03:43;101513.63;;;-2.58;88.78
66681;BME280;53575;51.366;12.350;2023-01-29T03:06:24;101516.09;;;-2.59;89.04
66681;BME280;53575;51.366;12.350;2023-01-29T03:08:58;101507.50;;;-2.60;88.74
66681;BME280;53575;51.366;12.350;2023-01-29T03:11:30;101503.84;;;-2.63;89.57
66681;BME280;53575;51.366;12.350;2023-01-29T03:19:16;101502.59;;;-2.70;89.54
66681;BME280;53575;51.366;12.350;2023-01-29T03:21:53;101500.31;;;-2.65;89.49
66681;BME280;53575;51.366;12.350;2023-01-29T03:27:19;101491.34;;;-2.72;89.66
66681;BME280;53575;51.366;12.350;2023-01-29T03:30:06;101492.22;;;-2.72;90.72
66681;BME280;53575;51.366;12.350;2023-01-29T03:32:54;101491.56;;;-2.69;89.81
66681;BME280;53575;51.366;12.350;2023-01-29T03:35:24;101502.69;;;-2.68;90.31
66681;BME280;53575;51.366;12.350;2023-01-29T03:37:59;101498.44;;;-2.68;90.04
66681;BME280;53575;51.366;12.350;2023-01-29T03:40:27;101495.28;;;-2.77;90.63
66681;BME280;53575;51.366;12.350;2023-01-29T03:45:46;101498.44;;;-2.68;90.06
66681;BME280;53575;51.366;12.350;2023-01-29T03:48:32;101506.25;;;-2.66;90.72
66681;BME280;53575;51.366;12.350;2023-01-29T03:56:59;101491.34;;;-2.72;91.06
66681;BME280;53575;51.366;12.350;2023-01-29T03:59:45;101491.06;;;-2.77;90.72
66681;BME280;53575;51.366;12.350;2023-01-29T04:02:26;101493.31;;;-2.68;90.56
66681;BME280;53575;51.366;12.350;2023-01-29T04:05:03;101494.03;;;-2.57;90.28
66681;BME280;53575;51.366;12.350;2023-01-29T04:07:29;101487.63;;;-2.64;89.81
66681;BME280;53575;51.366;12.350;2023-01-29T04:10:02;101488.41;;;-2.65;90.03
66681;BME280;53575;51.366;12.350;2023-01-29T04:12:34;101475.72;;;-2.63;89.76
66681;BME280;53575;51.366;12.350;2023-01-29T04:15:04;101491.69;;;-2.54;90.81
66681;BME280;53575;51.366;12.350;2023-01-29T04:17:36;101474.94;;;-2.49;89.87
66681;BME280;53575;51.366;12.350;2023-01-29T04:20:04;101472.38;;;-2.62;90.18
66681;BME280;53575;51.366;12.350;2023-01-29T04:22:33;101474.25;;;-2.60;90.46
66681;BME280;53575;51.366;12.350;2023-01-29T04:25:05;101472.84;;;-2.68;90.39
66681;BME280;53575;51.366;12.350;2023-01-29T04:30:49;101470.69;;;-2.75;90.96
66681;BME280;53575;51.366;12.350;2023-01-29T04:33:48;101459.56;;;-2.76;91.43
66681;BME280;53575;51.366;12.350;2023-01-29T04:41:56;101451.13;;;-2.61;90.51
66681;BME280;53575;51.366;12.350;2023-01-29T04:44:48;101449.84;;;-2.55;90.48
66681;BME280;53575;51.366;12.350;2023-01-29T05:00:40;101419.03;;;-2.56;90.00
66681;BME280;53575;51.366;12.350;2023-01-29T05:03:07;101408.13;;;-2.54;89.66
66681;BME280;53575;51.366;12.350;2023-01-29T05:05:34;101403.41;;;-2.48;89.80
66681;BME280;53575;51.366;12.350;2023-01-29T05:08:01;101414.00;;;-2.41;89.73
66681;BME280;53575;51.366;12.350;2023-01-29T05:10:27;101406.63;;;-2.37;90.49
66681;BME280;53575;51.366;12.350;2023-01-29T05:12:58;101400.22;;;-2.30;89.62
66681;BME280;53575;51.366;12.350;2023-01-29T05:16:27;101403.84;;;-2.27;88.72
66681;BME280;53575;51.366;12.350;2023-01-29T05:18:33;101411.81;;;-2.09;89.87
66681;BME280;53575;51.366;12.350;2023-01-29T05:21:03;101400.00;;;-2.20;88.69
66681;BME280;53575;51.366;12.350;2023-01-29T05:23:30;101400.09;;;-2.18;89.01
66681;BME280;53575;51.366;12.350;2023-01-29T05:25:56;101406.41;;;-2.27;88.30
66681;BME280;53575;51.366;12.350;2023-01-29T05:28:21;101402.19;;;-2.26;88.34
66681;BME280;53575;51.366;12.350;2023-01-29T05:30:53;101402.97;;;-2.27;88.63
66681;BME280;53575;51.366;12.350;2023-01-29T05:33:29;101400.00;;;-2.20;88.55
66681;BME280;53575;51.366;12.350;2023-01-29T05:35:57;101393.69;;;-2.25;88.38
66681;BME280;53575;51.366;12.350;2023-01-29T05:38:23;101394.41;;;-2.28;88.65
66681;BME280;53575;51.366;12.350;2023-01-29T05:40:49;101391.44;;;-2.21;88.77
66681;BME280;53575;51.366;12.350;2023-01-29T05:43:20;101382.97;;;-2.19;88.40
66681;BME280;53575;51.366;12.350;2023-01-29T05:45:53;101378.44;;;-2.24;89.01
66681;BME280;53575;51.366;12.350;2023-01-29T05:48:19;101383.09;;;-2.31;88.96
66681;BME280;53575;51.366;12.350;2023-01-29T05:50:45;101388.69;;;-2.37;89.28
66681;BME280;53575;51.366;12.350;2023-01-29T05:53:10;101393.69;;;-2.25;88.93
66681;BME280;53575;51.366;12.350;2023-01-29T05:55:35;101403.38;;;-2.21;88.41
66681;BME280;53575;51.366;12.350;2023-01-29T05:58:01;101399.81;;;-2.23;88.90
66681;BME280;53575;51.366;12.350;2023-01-29T06:00:26;101402.44;;;-2.22;88.61
66681;BME280;53575;51.366;12.350;2023-01-29T06:02:52;101398.88;;;-2.10;88.39
66681;BME280;53575;51.366;12.350;2023-01-29T06:05:17;101401.75;;;-2.06;88.33
66681;BME280;53575;51.366;12.350;2023-01-29T06:07:43;101400.38;;;-2.14;87.87
66681;BME280;53575;51.366;12.350;2023-01-29T06:10:15;101400.28;;;-2.15;88.59
66681;BME280;53575;51.366;12.350;2023-01-29T06:12:42;101402.38;;;-2.10;88.35
66681;BME280;53575;51.366;12.350;2023-01-29T06:15:08;101399.19;;;-2.06;88.59
66681;BME280;53575;51.366;12.350;2023-01-29T06:17:34;101396.81;;;-2.03;87.56
66681;BME280;53575;51.366;12.350;2023-01-29T06:19:59;101400.28;;;-2.02;87.52
66681;BME280;53575;51.366;12.350;2023-01-29T06:22:25;101407.16;;;-2.01;88.04
66681;BME280;53575;51.366;12.350;2023-01-29T06:24:50;101411.09;;;-2.06;88.43
66681;BME280;53575;51.366;12.350;2023-01-29T06:27:16;101411.56;;;-1.99;87.89
66681;BME280;53575;51.366;12.350;2023-01-29T06:29:41;101422.41;;;-2.03;87.84
66681;BME280;53575;51.366;12.350;2023-01-29T06:32:07;101426.47;;;-2.06;87.63
66681;BME280;53575;51.366;12.350;2023-01-29T06:34:32;101438.56;;;-2.04;88.09
66681;BME280;53575;51.366;12.350;2023-01-29T06:36:58;101437.09;;;-2.00;87.78
66681;BME280;53575;51.366;12.350;2023-01-29T06:39:23;101439.75;;;-1.99;87.96
66681;BME280;53575;51.366;12.350;2023-01-29T06:41:49;101444.78;;;-2.00;87.73
66681;BME280;53575;51.366;12.350;2023-01-29T06:44:14;101455.31;;;-1.96;88.38
66681;BME280;53575;51.366;12.350;2023-01-29T06:46:40;101458.66;;;-1.97;88.04
66681;BME280;53575;51.366;12.350;2023-01-29T06:49:05;101455.50;;;-1.92;88.13
66681;BME280;53575;51.366;12.350;2023-01-29T06:51:31;101461.16;;;-1.98;88.02
66681;BME280;53575;51.366;12.350;2023-01-29T06:53:56;101460.53;;;-1.94;88.03
66681;BME280;53575;51.366;12.350;2023-01-29T06:56:22;101468.31;;;-1.92;88.21
66681;BME280;53575;51.366;12.350;2023-01-29T06:58:48;101473.22;;;-1.96;88.38
66681;BME280;53575;51.366;12.350;2023-01-29T07:01:14;101470.28;;;-1.88;88.05
66681;BME280;53575;51.366;12.350;2023-01-29T07:03:39;101459.75;;;-1.93;88.43
66681;BME280;53575;51.366;12.350;2023-01-29T07:06:08;101466.44;;;-1.95;89.08
66681;BME280;53575;51.366;12.350;2023-01-29T07:08:38;101468.03;;;-1.97;88.94
66681;BME280;53575;51.366;12.350;2023-01-29T07:11:04;101471.28;;;-2.00;89.12
66681;BME280;53575;51.366;12.350;2023-01-29T07:13:30;101485.06;;;-1.98;89.08
66681;BME280;53575;51.366;12.350;2023-01-29T07:15:59;101489.59;;;-1.93;88.92
66681;BME280;53575;51.366;12.350;2023-01-29T07:18:26;101499.34;;;-1.88;89.33
66681;BME280;53575;51.366;12.350;2023-01-29T07:20:52;101505.53;;;-1.84;88.95
66681;BME280;53575;51.366;12.350;2023-01-29T07:23:18;101507.63;;;-1.79;88.63
66681;BME280;53575;51.366;12.350;2023-01-29T07:25:43;101500.88;;;-1.77;88.11
66681;BME280;53575;51.366;12.350;2023-01-29T07:28:10;101498.44;;;-1.75;88.84
66681;BME280;53575;51.366;12.350;2023-01-29T07:30:36;101497.03;;;-1.70;88.56
66681;BME280;53575;51.366;12.350;2023-01-29T07:33:03;101505.53;;;-1.71;88.25
66681;BME280;53575;51.366;12.350;2023-01-29T07:35:30;101500.75;;;-1.65;88.57
66681;BME280;53575;51.366;12.350;2023-01-29T07:37:55;101495.16;;;-1.59;88.29
66681;BME280;53575;51.366;12.350;2023-01-29T07:40:21;101486.06;;;-1.54;87.83
66681;BME280;53575;51.366;12.350;2023-01-29T07:42:46;101486.66;;;-1.58;87.85
66681;BME280;53575;51.366;12.350;2023-01-29T07:45:12;101489.91;;;-1.61;87.64
66681;BME280;53575;51.366;12.350;2023-01-29T07:47:37;101479.91;;;-1.71;88.28
66681;BME280;53575;51.366;12.350;2023-01-29T07:50:03;101476.00;;;-1.64;88.13
66681;BME280;53575;51.366;12.350;2023-01-29T07:52:30;101466.34;;;-1.55;87.73
66681;BME280;53575;51.366;12.350;2023-01-29T07:54:56;101462.72;;;-1.59;87.88
66681;BME280;53575;51.366;12.350;2023-01-29T07:57:22;101468.44;;;-1.63;88.89
66681;BME280;53575;51.366;12.350;2023-01-29T07:59:48;101464.38;;;-1.59;89.87
66681;BME280;53575;51.366;12.350;2023-01-29T08:02:13;101444.97;;;-1.56;90.26
66681;BME280;53575;51.366;12.350;2023-01-29T08:04:39;101438.75;;;-1.59;90.63
66681;BME280;53575;51.366;12.350;2023-01-29T08:07:05;101426.72;;;-1.60;90.90
66681;BME280;53575;51.366;12.350;2023-01-29T08:09:30;101427.78;;;-1.57;90.53
66681;BME280;53575;51.366;12.350;2023-01-29T08:11:56;101423.59;;;-1.41;89.86
66681;BME280;53575;51.366;12.350;2023-01-29T08:14:22;101419.81;;;-1.33;89.22
66681;BME280;53575;51.366;12.350;2023-01-29T08:16:48;101426.38;;;-1.24;88.31
66681;BME280;53575;51.366;12.350;2023-01-29T08:19:14;101409.41;;;-1.21;88.71
66681;BME280;53575;51.366;12.350;2023-01-29T08:21:39;101414.41;;;-1.23;87.82
66681;BME280;53575;51.366;12.350;2023-01-29T08:24:05;101434.78;;;-1.11;87.21
66681;BME280;53575;51.366;12.350;2023-01-29T08:26:31;101444.25;;;-1.10;87.48
66681;BME280;53575;51.366;12.350;2023-01-29T08:28:57;101426.53;;;-1.20;87.44
66681;BME280;53575;51.366;12.350;2023-01-29T08:31:22;101425.06;;;-1.17;88.79
66681;BME280;53575;51.366;12.350;2023-01-29T08:33:48;101425.66;;;-1.21;87.92
66681;BME280;53575;51.366;12.350;2023-01-29T08:36:13;101428.66;;;-1.28;89.07
66681;BME280;53575;51.366;12.350;2023-01-29T08:38:39;101447.13;;;-1.34;90.46
66681;BME280;53575;51.366;12.350;2023-01-29T08:41:05;101454.19;;;-1.44;91.66
66681;BME280;53575;51.366;12.350;2023-01-29T08:43:31;101450.03;;;-1.42;93.04
66681;BME280;53575;51.366;12.350;2023-01-29T08:45:57;101426.94;;;-1.42;93.37
66681;BME280;53575;51.366;12.350;2023-01-29T08:48:22;101446.00;;;-1.24;93.24
66681;BME280;53575;51.366;12.350;2023-01-29T08:50:49;101442.38;;;-1.28;92.49
66681;BME280;53575;51.366;12.350;2023-01-29T08:53:15;101443.97;;;-1.15;92.62
66681;BME280;53575;51.366;12.350;2023-01-29T08:55:40;101454.06;;;-1.18;91.82
66681;BME280;53575;51.366;12.350;2023-01-29T08:58:09;101461.84;;;-1.16;91.37
66681;BME280;53575;51.366;12.350;2023-01-29T09:00:36;101448.66;;;-1.08;91.21
66681;BME280;53575;51.366;12.350;2023-01-29T09:03:01;101434.16;;;-1.07;90.81
66681;BME280;53575;51.366;12.350;2023-01-29T09:05:28;101427.09;;;-0.96;90.62
66681;BME280;53575;51.366;12.350;2023-01-29T09:07:56;101426.47;;;-0.78;89.67
66681;BME280;53575;51.366;12.350;2023-01-29T09:10:22;101437.78;;;-0.89;89.97
66681;BME280;53575;51.366;12.350;2023-01-29T09:12:47;101437.72;;;-0.90;89.47
66681;BME280;53575;51.366;12.350;2023-01-29T09:15:12;101424.34;;;-0.85;89.46
66681;BME280;53575;51.366;12.350;2023-01-29T09:17:38;101419.31;;;-0.98;89.69
66681;BME280;53575;51.366;12.350;2023-01-29T09:20:04;101421.88;;;-0.83;89.50
66681;BME280;53575;51.366;12.350;2023-01-29T09:22:30;101412.56;;;-0.81;89.65
66681;BME280;53575;51.366;12.350;2023-01-29T09:24:56;101404.06;;;-0.80;89.22
66681;BME280;53575;51.366;12.350;2023-01-29T09:27:22;101398.34;;;-0.76;88.84
66681;BME280;53575;51.366;12.350;2023-01-29T09:29:47;101384.34;;;-0.66;88.84
66681;BME280;53575;51.366;12.350;2023-01-29T09:32:12;101395.38;;;-0.53;88.65
66681;BME280;53575;51.366;12.350;2023-01-29T09:34:38;101397.56;;;-0.44;87.72
66681;BME280;53575;51.366;12.350;2023-01-29T09:37:04;101390.25;;;-0.53;87.31
66681;BME280;53575;51.366;12.350;2023-01-29T09:39:30;101399.44;;;-0.41;87.91
66681;BME280;53575;51.366;12.350;2023-01-29T09:42:23;101401.47;;;-0.51;88.08
66681;BME280;53575;51.366;12.350;2023-01-29T09:45:14;101404.34;;;-0.30;87.04
66681;BME280;53575;51.366;12.350;2023-01-29T09:47:40;101407.88;;;-0.28;87.36
66681;BME280;53575;51.366;12.350;2023-01-29T09:50:18;101406.72;;;-0.18;86.93
66681;BME280;53575;51.366;12.350;2023-01-29T09:53:03;101405.66;;;-0.21;86.58
66681;BME280;53575;51.366;12.350;2023-01-29T09:55:54;101404.66;;;-0.23;86.98
66681;BME280;53575;51.366;12.350;2023-01-29T09:58:26;101401.34;;;-0.22;86.64
66681;BME280;53575;51.366;12.350;2023-01-29T10:07:31;101378.63;;;0.02;86.17
66681;BME280;53575;51.366;12.350;2023-01-29T10:10:23;101362.41;;;0.03;85.68
66681;BME280;53575;51.366;12.350;2023-01-29T10:13:18;101368.94;;;0.12;86.16
66681;BME280;53575;51.366;12.350;2023-01-29T10:15:46;101364.66;;;0.13;85.47
66681;BME280;53575;51.366;12.350;2023-01-29T10:24:37;101357.13;;;0.16;85.17
66681;BME280;53575;51.366;12.350;2023-01-29T10:27:02;101349.47;;;0.17;84.64
66681;BME280;53575;51.366;12.350;2023-01-29T10:29:34;101347.16;;;0.06;85.38
66681;BME280;53575;51.366;12.350;2023-01-29T10:32:01;101350.13;;;0.13;85.07
66681;BME280;53575;51.366;12.350;2023-01-29T10:34:32;101343.41;;;0.15;85.11
66681;BME280;53575;51.366;12.350;2023-01-29T10:37:00;101339.13;;;0.16;85.11
66681;BME280;53575;51.366;12.350;2023-01-29T10:39:32;101341.34;;;0.26;84.77
66681;BME280;53575;51.366;12.350;2023-01-29T10:59:26;101329.91;;;0.19;85.05
66681;BME280;53575;51.366;12.350;2023-01-29T11:01:16;101312.13;;;0.24;85.95
66681;BME280;53575;51.366;12.350;2023-01-29T11:03:41;101302.75;;;0.24;85.69
66681;BME280;53575;51.366;12.350;2023-01-29T11:06:20;101307.81;;;0.23;85.31
66681;BME280;53575;51.366;12.350;2023-01-29T11:11:53;101294.81;;;0.38;84.75
66681;BME280;53575;51.366;12.350;2023-01-29T11:14:25;101299.03;;;0.36;84.73
66681;BME280;53575;51.366;12.350;2023-01-29T11:16:52;101301.66;;;0.37;84.72
66681;BME280;53575;51.366;12.350;2023-01-29T11:19:35;101295.31;;;0.47;84.75
66681;BME280;53575;51.366;12.350;2023-01-29T11:22:01;101286.06;;;0.51;84.52
66681;BME280;53575;51.366;12.350;2023-01-29T11:24:28;101273.66;;;0.60;84.11
66681;BME280;53575;51.366;12.350;2023-01-29T11:26:57;101271.41;;;0.49;83.76
66681;BME280;53575;51.366;12.350;2023-01-29T11:31:56;101268.13;;;0.52;83.29
66681;BME280;53575;51.366;12.350;2023-01-29T11:34:23;101261.88;;;0.47;83.49
66681;BME280;53575;51.366;12.350;2023-01-29T11:37:03;101258.44;;;0.46;84.07
66681;BME280;53575;51.366;12.350;2023-01-29T11:39:30;101250.34;;;0.57;84.05
66681;BME280;53575;51.366;12.350;2023-01-29T11:41:59;101242.22;;;0.65;83.42
66681;BME280;53575;51.366;12.350;2023-01-29T11:44:32;101263.88;;;0.70;82.80
66681;BME280;53575;51.366;12.350;2023-01-29T11:47:28;101255.50;;;0.75;82.74
66681;BME280;53575;51.366;12.350;2023-01-29T11:49:56;101264.03;;;0.73;82.07
66681;BME280;53575;51.366;12.350;2023-01-29T11:52:25;101246.91;;;0.74;81.56
66681;BME280;53575;51.366;12.350;2023-01-29T11:54:58;101249.94;;;0.65;82.21
66681;BME280;53575;51.366;12.350;2023-01-29T11:57:36;101236.25;;;0.66;82.08
66681;BME280;53575;51.366;12.350;2023-01-29T12:02:44;101213.47;;;0.74;82.09
66681;BME280;53575;51.366;12.350;2023-01-29T12:05:18;101216.41;;;1.00;82.06
66681;BME280;53575;51.366;12.350;2023-01-29T12:07:47;101212.50;;;0.90;81.40
66681;BME280;53575;51.366;12.350;2023-01-29T12:13:17;101208.13;;;1.07;80.88
66681;BME280;53575;51.366;12.350;2023-01-29T12:16:05;101205.34;;;1.02;80.23
66681;BME280;53575;51.366;12.350;2023-01-29T12:18:37;101208.94;;;1.06;81.10
66681;BME280;53575;51.366;12.350;2023-01-29T12:21:25;101205.44;;;1.04;80.88
66681;BME280;53575;51.366;12.350;2023-01-29T12:23:52;101196.16;;;1.07;80.79
66681;BME280;53575;51.366;12.350;2023-01-29T12:26:43;101177.00;;;1.20;80.16
66681;BME280;53575;51.366;12.350;2023-01-29T12:37:15;101155.69;;;1.42;79.94
66681;BME280;53575;51.366;12.350;2023-01-29T12:39:43;101152.81;;;1.36;79.46
66681;BME280;53575;51.366;12.350;2023-01-29T12:42:20;101161.66;;;1.60;79.03
66681;BME280;53575;51.366;12.350;2023-01-29T12:44:57;101154.66;;;1.58;78.60
66681;BME280;53575;51.366;12.350;2023-01-29T12:47:42;101157.44;;;1.62;78.79
66681;BME280;53575;51.366;12.350;2023-01-29T12:55:38;101157.78;;;1.51;78.85
66681;BME280;53575;51.366;12.350;2023-01-29T12:58:14;101156.06;;;1.51;78.35
66681;BME280;53575;51.366;12.350;2023-01-29T13:00:43;101150.41;;;1.39;78.72
66681;BME280;53575;51.366;12.350;2023-01-29T13:08:25;101156.75;;;1.28;79.75
66681;BME280;53575;51.366;12.350;2023-01-29T13:10:52;101147.00;;;1.40;79.17
66681;BME280;53575;51.366;12.350;2023-01-29T13:13:34;101138.88;;;1.50;79.25
66681;BME280;53575;51.366;12.350;2023-01-29T13:16:03;101131.63;;;1.61;78.98
66681;BME280;53575;51.366;12.350;2023-01-29T13:18:51;101110.69;;;1.53;78.84
66681;BME280;53575;51.366;12.350;2023-01-29T13:21:45;101115.88;;;1.55;78.42
66681;BME280;53575;51.366;12.350;2023-01-29T13:24:16;101105.56;;;1.55;78.71
66681;BME280;53575;51.366;12.350;2023-01-29T13:26:45;101098.22;;;1.64;78.58
66681;BME280;53575;51.366;12.350;2023-01-29T13:29:23;101097.13;;;1.78;77.96
66681;BME280;53575;51.366;12.350;2023-01-29T13:31:50;101094.84;;;1.65;77.60
66681;BME280;53575;51.366;12.350;2023-01-29T13:34:27;101089.94;;;1.50;78.54
66681;BME280;53575;51.366;12.350;2023-01-29T13:37:09;101096.66;;;1.46;78.77
66681;BME280;53575;51.366;12.350;2023-01-29T13:39:37;101100.84;;;1.44;79.49
66681;BME280;53575;51.366;12.350;2023-01-29T13:44:50;101100.16;;;1.49;79.93
66681;BME280;53575;51.366;12.350;2023-01-29T13:47:29;101080.56;;;1.52;79.56
66681;BME280;53575;51.366;12.350;2023-01-29T13:50:08;101085.72;;;1.52;79.15
66681;BME280;53575;51.366;12.350;2023-01-29T13:55:20;101078.84;;;1.72;79.01
66681;BME280;53575;51.366;12.350;2023-01-29T13:57:50;101076.69;;;1.62;78.93
66681;BME280;53575;51.366;12.350;2023-01-29T14:02:44;101090.44;;;1.41;79.40
66681;BME280;53575;51.366;12.350;2023-01-29T14:10:28;101111.22;;;1.27;80.68
66681;BME280;53575;51.366;12.350;2023-01-29T14:18:33;101114.81;;;1.11;81.81
66681;BME280;53575;51.366;12.350;2023-01-29T14:21:02;101113.91;;;1.10;82.14
66681;BME280;53575;51.366;12.350;2023-01-29T14:23:44;101117.13;;;1.05;82.23
66681;BME280;53575;51.366;12.350;2023-01-29T14:29:05;101100.66;;;1.01;82.44
66681;BME280;53575;51.366;12.350;2023-01-29T14:34:25;101099.34;;;0.91;82.94
66681;BME280;53575;51.366;12.350;2023-01-29T14:37:01;101101.13;;;0.92;83.65
66681;BME280;53575;51.366;12.350;2023-01-29T14:39:35;101088.25;;;0.92;83.23
66681;BME280;53575;51.366;12.350;2023-01-29T14:42:12;101091.44;;;1.06;83.67
66681;BME280;53575;51.366;12.350;2023-01-29T14:49:57;101087.06;;;1.04;83.13
66681;BME280;53575;51.366;12.350;2023-01-29T14:52:41;101086.91;;;1.01;82.81
66681;BME280;53575;51.366;12.350;2023-01-29T14:55:27;101085.69;;;0.92;83.30
66681;BME280;53575;51.366;12.350;2023-01-29T14:57:55;101091.56;;;0.90;83.38
66681;BME280;53575;51.366;12.350;2023-01-29T15:00:30;101093.13;;;0.86;83.81
66681;BME280;53575;51.366;12.350;2023-01-29T15:02:58;101080.00;;;0.80;83.59
66681;BME280;53575;51.366;12.350;2023-01-29T15:05:27;101083.34;;;0.79;83.94
66681;BME280;53575;51.366;12.350;2023-01-29T15:08:05;101079.09;;;0.80;83.84
66681;BME280;53575;51.366;12.350;2023-01-29T15:10:42;101071.47;;;0.81;84.23
66681;BME280;53575;51.366;12.350;2023-01-29T15:13:25;101070.94;;;0.88;84.23
66681;BME280;53575;51.366;12.350;2023-01-29T15:16:01;101066.50;;;0.86;84.47
66681;BME280;53575;51.366;12.350;2023-01-29T15:18:40;101062.91;;;0.82;84.42
66681;BME280;53575;51.366;12.350;2023-01-29T15:21:11;101063.75;;;0.81;84.37
66681;BME280;53575;51.366;12.350;2023-01-29T15:23:37;101052.34;;;0.76;84.68